sensor_id;sensor_type;location;lat;lon;timestamp;temperature;humidity
4993;DHT22;2514;53.524;10.166;2022-09-24T00:00:55;13.30;1.00
4993;DHT22;2514;53.524;10.166;2022-09-24T00:03:24;13.30;1.00
4993;DHT22;2514;53.524;10.166;2022-09-24T00:05:52;13.20;1.00
4993;DHT22;2514;53.524;10.166;2022-09-24T00:08:19;13.10;1.00
4993;DHT22;2514;53.524;10.166;2022-09-24T00:10:47;13.00;1.00
4993;DHT22;2514;53.524;10.166;2022-09-24T00:13:17;13.00;38.10
4993;DHT22;2514;53.524;10.166;2022-09-24T00:15:46;12.90;93.70
4993;DHT22;2514;53.524;10.166;2022-09-24T00:18:15;13.00;93.90
4993;DHT22;2514;53.524;10.166;2022-09-24T00:20:43;13.00;99.90
4993;DHT22;2514;53.524;10.166;2022-09-24T00:23:11;13.00;99.90
4993;DHT22;2514;53.524;10.166;2022-09-24T00:25:41;12.90;99.90
4993;DHT22;2514;53.524;10.166;2022-09-24T00:28:27;12.80;99.90
4993;DHT22;2514;53.524;10.166;2022-09-24T00:30:55;12.80;99.90
4993;DHT22;2514;53.524;10.166;2022-09-24T00:33:23;12.80;99.90
4993;DHT22;2514;53.524;10.166;2022-09-24T00:35:50;12.90;99.90
4993;DHT22;2514;53.524;10.166;2022-09-24T00:38:18;12.90;99.90
4993;DHT22;2514;53.524;10.166;2022-09-24T00:40:45;12.80;99.90
4993;DHT22;2514;53.524;10.166;2022-09-24T00:43:27;12.70;99.90
4993;DHT22;2514;53.524;10.166;2022-09-24T00:45:57;12.70;99.90
4993;DHT22;2514;53.524;10.166;2022-09-24T00:48:30;12.80;99.90
4993;DHT22;2514;53.524;10.166;2022-09-24T00:50:59;12.70;99.90
4993;DHT22;2514;53.524;10.166;2022-09-24T00:53:26;12.70;99.90
4993;DHT22;2514;53.524;10.166;2022-09-24T00:55:58;12.70;99.90
4993;DHT22;2514;53.524;10.166;2022-09-24T00:58:29;12.70;99.90
4993;DHT22;2514;53.524;10.166;2022-09-24T01:00:59;12.60;99.90
4993;DHT22;2514;53.524;10.166;2022-09-24T01:03:31;12.60;99.90
4993;DHT22;2514;53.524;10.166;2022-09-24T01:06:06;12.60;99.90
4993;DHT22;2514;53.524;10.166;2022-09-24T01:08:33;12.60;99.90
4993;DHT22;2514;53.524;10.166;2022-09-24T01:11:19;12.60;99.90
4993;DHT22;2514;53.524;10.166;2022-09-24T01:14:08;12.60;99.90
4993;DHT22;2514;53.524;10.166;2022-09-24T01:16:48;12.50;99.90
4993;DHT22;2514;53.524;10.166;2022-09-24T01:20:02;12.50;99.90
4993;DHT22;2514;53.524;10.166;2022-09-24T01:22:51;12.50;99.90
4993;DHT22;2514;53.524;10.166;2022-09-24T01:25:32;12.50;99.90
4993;DHT22;2514;53.524;10.166;2022-09-24T01:28:17;12.50;99.90
4993;DHT22;2514;53.524;10.166;2022-09-24T01:30:59;12.50;99.90
4993;DHT22;2514;53.524;10.166;2022-09-24T01:33:32;12.50;99.90
4993;DHT22;2514;53.524;10.166;2022-09-24T01:36:03;12.40;99.90
4993;DHT22;2514;53.524;10.166;2022-09-24T01:38:36;12.40;99.90
4993;DHT22;2514;53.524;10.166;2022-09-24T01:41:06;12.40;99.90
4993;DHT22;2514;53.524;10.166;2022-09-24T01:43:35;12.50;99.90
4993;DHT22;2514;53.524;10.166;2022-09-24T01:46:05;12.40;99.90
4993;DHT22;2514;53.524;10.166;2022-09-24T01:48:35;12.40;99.90
4993;DHT22;2514;53.524;10.166;2022-09-24T01:51:07;12.40;99.90
4993;DHT22;2514;53.524;10.166;2022-09-24T01:53:40;12.30;99.90
4993;DHT22;2514;53.524;10.166;2022-09-24T01:56:13;12.30;99.90
4993;DHT22;2514;53.524;10.166;2022-09-24T01:58:46;12.50;99.90
4993;DHT22;2514;53.524;10.166;2022-09-24T02:01:21;12.40;99.90
4993;DHT22;2514;53.524;10.166;2022-09-24T02:03:56;12.40;99.90
4993;DHT22;2514;53.524;10.166;2022-09-24T02:06:31;12.40;99.90
4993;DHT22;2514;53.524;10.166;2022-09-24T02:09:01;12.40;99.90
4993;DHT22;2514;53.524;10.166;2022-09-24T02:11:30;12.40;99.90
4993;DHT22;2514;53.524;10.166;2022-09-24T02:14:02;12.30;99.90
4993;DHT22;2514;53.524;10.166;2022-09-24T02:16:45;12.30;99.90
4993;DHT22;2514;53.524;10.166;2022-09-24T02:19:16;12.30;99.90
4993;DHT22;2514;53.524;10.166;2022-09-24T02:21:45;12.20;99.90
4993;DHT22;2514;53.524;10.166;2022-09-24T02:24:14;12.20;99.90
4993;DHT22;2514;53.524;10.166;2022-09-24T02:26:42;12.20;99.90
4993;DHT22;2514;53.524;10.166;2022-09-24T02:29:10;12.20;99.90
4993;DHT22;2514;53.524;10.166;2022-09-24T02:31:41;12.20;99.90
4993;DHT22;2514;53.524;10.166;2022-09-24T02:34:12;12.20;99.90
4993;DHT22;2514;53.524;10.166;2022-09-24T02:36:47;12.10;99.90
4993;DHT22;2514;53.524;10.166;2022-09-24T02:39:15;12.10;99.90
4993;DHT22;2514;53.524;10.166;2022-09-24T02:41:43;12.10;99.90
4993;DHT22;2514;53.524;10.166;2022-09-24T02:44:12;12.10;99.90
4993;DHT22;2514;53.524;10.166;2022-09-24T02:46:41;12.10;99.90
4993;DHT22;2514;53.524;10.166;2022-09-24T02:49:09;12.10;99.90
4993;DHT22;2514;53.524;10.166;2022-09-24T02:51:36;12.10;99.90
4993;DHT22;2514;53.524;10.166;2022-09-24T02:54:03;12.10;99.90
4993;DHT22;2514;53.524;10.166;2022-09-24T02:56:30;12.10;99.90
4993;DHT22;2514;53.524;10.166;2022-09-24T02:58:58;12.10;99.90
4993;DHT22;2514;53.524;10.166;2022-09-24T03:01:25;12.20;99.90
4993;DHT22;2514;53.524;10.166;2022-09-24T03:03:54;12.30;99.90
4993;DHT22;2514;53.524;10.166;2022-09-24T03:06:21;12.20;99.90
4993;DHT22;2514;53.524;10.166;2022-09-24T03:08:49;12.30;99.90
4993;DHT22;2514;53.524;10.166;2022-09-24T03:11:19;12.30;99.90
4993;DHT22;2514;53.524;10.166;2022-09-24T03:13:47;12.30;99.90
4993;DHT22;2514;53.524;10.166;2022-09-24T03:16:16;12.30;99.90
4993;DHT22;2514;53.524;10.166;2022-09-24T03:18:44;12.30;99.90
4993;DHT22;2514;53.524;10.166;2022-09-24T03:21:15;12.30;99.90
4993;DHT22;2514;53.524;10.166;2022-09-24T03:23:44;12.30;99.90
4993;DHT22;2514;53.524;10.166;2022-09-24T03:26:11;12.20;99.90
4993;DHT22;2514;53.524;10.166;2022-09-24T03:28:39;12.10;99.90
4993;DHT22;2514;53.524;10.166;2022-09-24T03:31:06;12.10;99.90
4993;DHT22;2514;53.524;10.166;2022-09-24T03:33:35;12.00;99.90
4993;DHT22;2514;53.524;10.166;2022-09-24T03:36:05;12.00;99.90
4993;DHT22;2514;53.524;10.166;2022-09-24T03:38:35;12.00;99.90
4993;DHT22;2514;53.524;10.166;2022-09-24T03:41:04;12.00;99.90
4993;DHT22;2514;53.524;10.166;2022-09-24T03:43:32;11.90;99.90
4993;DHT22;2514;53.524;10.166;2022-09-24T03:45:59;11.90;99.90
4993;DHT22;2514;53.524;10.166;2022-09-24T03:48:26;11.90;99.90
4993;DHT22;2514;53.524;10.166;2022-09-24T03:50:54;11.90;99.90
4993;DHT22;2514;53.524;10.166;2022-09-24T03:53:21;11.90;99.90
4993;DHT22;2514;53.524;10.166;2022-09-24T03:55:53;11.90;99.90
4993;DHT22;2514;53.524;10.166;2022-09-24T03:58:22;11.90;99.90
4993;DHT22;2514;53.524;10.166;2022-09-24T04:00:50;11.90;99.90
4993;DHT22;2514;53.524;10.166;2022-09-24T04:03:18;11.80;99.90
4993;DHT22;2514;53.524;10.166;2022-09-24T04:05:45;11.90;99.90
4993;DHT22;2514;53.524;10.166;2022-09-24T04:08:12;11.90;99.90
4993;DHT22;2514;53.524;10.166;2022-09-24T04:10:39;11.90;99.90
4993;DHT22;2514;53.524;10.166;2022-09-24T04:13:08;11.90;99.90
4993;DHT22;2514;53.524;10.166;2022-09-24T04:15:35;11.90;99.90
4993;DHT22;2514;53.524;10.166;2022-09-24T04:18:02;11.80;99.90
4993;DHT22;2514;53.524;10.166;2022-09-24T04:20:29;11.80;99.90
4993;DHT22;2514;53.524;10.166;2022-09-24T04:22:58;11.80;99.90
4993;DHT22;2514;53.524;10.166;2022-09-24T04:25:28;11.80;99.90
4993;DHT22;2514;53.524;10.166;2022-09-24T04:27:58;11.80;99.90
4993;DHT22;2514;53.524;10.166;2022-09-24T04:30:28;11.80;99.90
4993;DHT22;2514;53.524;10.166;2022-09-24T04:32:56;11.80;99.90
4993;DHT22;2514;53.524;10.166;2022-09-24T04:35:25;11.80;99.90
4993;DHT22;2514;53.524;10.166;2022-09-24T04:37:54;11.70;99.90
4993;DHT22;2514;53.524;10.166;2022-09-24T04:40:22;11.80;99.90
4993;DHT22;2514;53.524;10.166;2022-09-24T04:42:49;11.80;99.90
4993;DHT22;2514;53.524;10.166;2022-09-24T04:45:17;11.80;99.90
4993;DHT22;2514;53.524;10.166;2022-09-24T04:47:47;11.80;99.90
4993;DHT22;2514;53.524;10.166;2022-09-24T04:50:19;11.80;99.90
4993;DHT22;2514;53.524;10.166;2022-09-24T04:52:46;11.80;99.90
4993;DHT22;2514;53.524;10.166;2022-09-24T04:55:13;11.80;99.90
4993;DHT22;2514;53.524;10.166;2022-09-24T04:57:40;11.80;99.90
4993;DHT22;2514;53.524;10.166;2022-09-24T05:00:13;11.80;99.90
4993;DHT22;2514;53.524;10.166;2022-09-24T05:02:42;11.80;99.90
4993;DHT22;2514;53.524;10.166;2022-09-24T05:05:11;11.80;99.90
4993;DHT22;2514;53.524;10.166;2022-09-24T05:07:40;11.80;99.90
4993;DHT22;2514;53.524;10.166;2022-09-24T05:10:09;11.80;99.90
4993;DHT22;2514;53.524;10.166;2022-09-24T05:12:39;11.80;99.90
4993;DHT22;2514;53.524;10.166;2022-09-24T05:15:07;11.90;99.90
4993;DHT22;2514;53.524;10.166;2022-09-24T05:17:37;11.90;99.90
4993;DHT22;2514;53.524;10.166;2022-09-24T05:20:05;11.90;99.90
4993;DHT22;2514;53.524;10.166;2022-09-24T05:22:33;11.90;99.90
4993;DHT22;2514;53.524;10.166;2022-09-24T05:25:02;11.90;99.90
4993;DHT22;2514;53.524;10.166;2022-09-24T05:27:29;11.90;99.90
4993;DHT22;2514;53.524;10.166;2022-09-24T05:29:55;11.90;99.90
4993;DHT22;2514;53.524;10.166;2022-09-24T05:32:22;11.90;99.90
4993;DHT22;2514;53.524;10.166;2022-09-24T05:34:50;11.90;99.90
4993;DHT22;2514;53.524;10.166;2022-09-24T05:37:18;11.90;99.90
4993;DHT22;2514;53.524;10.166;2022-09-24T05:39:46;11.90;99.90
4993;DHT22;2514;53.524;10.166;2022-09-24T05:42:13;11.90;99.90
4993;DHT22;2514;53.524;10.166;2022-09-24T05:44:40;11.80;99.90
4993;DHT22;2514;53.524;10.166;2022-09-24T05:47:08;11.80;99.90
4993;DHT22;2514;53.524;10.166;2022-09-24T05:49:36;11.80;99.90
4993;DHT22;2514;53.524;10.166;2022-09-24T05:52:03;11.70;99.90
4993;DHT22;2514;53.524;10.166;2022-09-24T05:54:31;11.70;99.90
4993;DHT22;2514;53.524;10.166;2022-09-24T05:57:00;11.70;99.90
4993;DHT22;2514;53.524;10.166;2022-09-24T05:59:26;11.70;99.90
4993;DHT22;2514;53.524;10.166;2022-09-24T06:01:53;11.60;99.90
4993;DHT22;2514;53.524;10.166;2022-09-24T06:04:20;11.60;99.90
4993;DHT22;2514;53.524;10.166;2022-09-24T06:06:47;11.60;99.90
4993;DHT22;2514;53.524;10.166;2022-09-24T06:09:14;11.50;99.90
4993;DHT22;2514;53.524;10.166;2022-09-24T06:11:41;11.50;99.90
4993;DHT22;2514;53.524;10.166;2022-09-24T06:14:10;11.50;99.90
4993;DHT22;2514;53.524;10.166;2022-09-24T06:16:37;11.50;99.90
4993;DHT22;2514;53.524;10.166;2022-09-24T06:19:04;11.50;99.90
4993;DHT22;2514;53.524;10.166;2022-09-24T06:21:31;11.60;99.90
4993;DHT22;2514;53.524;10.166;2022-09-24T06:23:58;11.60;99.90
4993;DHT22;2514;53.524;10.166;2022-09-24T06:26:26;11.70;99.90
4993;DHT22;2514;53.524;10.166;2022-09-24T06:28:53;11.70;99.90
4993;DHT22;2514;53.524;10.166;2022-09-24T06:31:22;11.60;99.90
4993;DHT22;2514;53.524;10.166;2022-09-24T06:33:49;11.70;99.90
4993;DHT22;2514;53.524;10.166;2022-09-24T06:36:16;11.70;99.90
4993;DHT22;2514;53.524;10.166;2022-09-24T06:38:43;11.60;99.90
4993;DHT22;2514;53.524;10.166;2022-09-24T06:41:10;11.60;99.90
4993;DHT22;2514;53.524;10.166;2022-09-24T06:43:37;11.60;99.90
4993;DHT22;2514;53.524;10.166;2022-09-24T06:46:04;11.60;99.90
4993;DHT22;2514;53.524;10.166;2022-09-24T06:48:33;11.50;99.90
4993;DHT22;2514;53.524;10.166;2022-09-24T06:51:04;11.50;99.90
4993;DHT22;2514;53.524;10.166;2022-09-24T06:53:31;11.60;99.90
4993;DHT22;2514;53.524;10.166;2022-09-24T06:55:58;11.50;99.90
4993;DHT22;2514;53.524;10.166;2022-09-24T06:58:28;11.50;99.90
4993;DHT22;2514;53.524;10.166;2022-09-24T07:00:56;11.60;99.90
4993;DHT22;2514;53.524;10.166;2022-09-24T07:03:27;11.60;99.90
4993;DHT22;2514;53.524;10.166;2022-09-24T07:05:59;11.50;99.90
4993;DHT22;2514;53.524;10.166;2022-09-24T07:08:27;11.50;99.90
4993;DHT22;2514;53.524;10.166;2022-09-24T07:10:54;11.50;99.90
4993;DHT22;2514;53.524;10.166;2022-09-24T07:13:21;11.60;99.90
4993;DHT22;2514;53.524;10.166;2022-09-24T07:15:51;11.50;99.90
4993;DHT22;2514;53.524;10.166;2022-09-24T07:18:19;11.60;99.90
4993;DHT22;2514;53.524;10.166;2022-09-24T07:20:50;11.50;99.90
4993;DHT22;2514;53.524;10.166;2022-09-24T07:23:19;11.50;99.90
4993;DHT22;2514;53.524;10.166;2022-09-24T07:25:47;11.50;99.90
4993;DHT22;2514;53.524;10.166;2022-09-24T07:28:15;11.50;99.90
4993;DHT22;2514;53.524;10.166;2022-09-24T07:30:43;11.50;99.90
4993;DHT22;2514;53.524;10.166;2022-09-24T07:33:10;11.50;99.90
4993;DHT22;2514;53.524;10.166;2022-09-24T07:35:38;11.50;99.90
4993;DHT22;2514;53.524;10.166;2022-09-24T07:38:07;11.50;99.90
4993;DHT22;2514;53.524;10.166;2022-09-24T07:40:38;11.50;99.90
4993;DHT22;2514;53.524;10.166;2022-09-24T07:43:06;11.50;99.90
4993;DHT22;2514;53.524;10.166;2022-09-24T07:45:36;11.60;99.90
4993;DHT22;2514;53.524;10.166;2022-09-24T07:48:04;11.50;99.90
4993;DHT22;2514;53.524;10.166;2022-09-24T07:50:36;11.50;99.90
4993;DHT22;2514;53.524;10.166;2022-09-24T07:53:04;11.50;99.90
4993;DHT22;2514;53.524;10.166;2022-09-24T07:55:31;11.50;99.90
4993;DHT22;2514;53.524;10.166;2022-09-24T07:58:07;11.60;99.90
4993;DHT22;2514;53.524;10.166;2022-09-24T08:00:37;11.50;99.90
4993;DHT22;2514;53.524;10.166;2022-09-24T08:03:04;11.50;99.90
4993;DHT22;2514;53.524;10.166;2022-09-24T08:05:32;11.50;99.90
4993;DHT22;2514;53.524;10.166;2022-09-24T08:07:59;11.50;99.90
4993;DHT22;2514;53.524;10.166;2022-09-24T08:10:27;11.50;99.90
4993;DHT22;2514;53.524;10.166;2022-09-24T08:12:54;11.50;99.90
4993;DHT22;2514;53.524;10.166;2022-09-24T08:15:23;11.50;99.90
4993;DHT22;2514;53.524;10.166;2022-09-24T08:17:50;11.50;99.90
4993;DHT22;2514;53.524;10.166;2022-09-24T08:20:17;11.50;99.90
4993;DHT22;2514;53.524;10.166;2022-09-24T08:22:47;11.50;99.90
4993;DHT22;2514;53.524;10.166;2022-09-24T08:25:14;11.60;99.90
4993;DHT22;2514;53.524;10.166;2022-09-24T08:27:41;11.60;99.90
4993;DHT22;2514;53.524;10.166;2022-09-24T08:30:10;11.50;99.90
4993;DHT22;2514;53.524;10.166;2022-09-24T08:32:39;11.50;99.90
4993;DHT22;2514;53.524;10.166;2022-09-24T08:35:07;11.60;99.90
4993;DHT22;2514;53.524;10.166;2022-09-24T08:37:36;11.60;99.90
4993;DHT22;2514;53.524;10.166;2022-09-24T08:40:04;11.60;99.90
4993;DHT22;2514;53.524;10.166;2022-09-24T08:42:37;11.80;99.90
4993;DHT22;2514;53.524;10.166;2022-09-24T08:45:08;11.70;99.90
4993;DHT22;2514;53.524;10.166;2022-09-24T08:47:57;11.70;99.90
4993;DHT22;2514;53.524;10.166;2022-09-24T08:50:28;11.60;99.90
4993;DHT22;2514;53.524;10.166;2022-09-24T08:53:05;11.60;99.90
4993;DHT22;2514;53.524;10.166;2022-09-24T08:55:41;11.70;99.90
4993;DHT22;2514;53.524;10.166;2022-09-24T08:58:28;11.60;99.90
4993;DHT22;2514;53.524;10.166;2022-09-24T09:01:04;11.60;99.90
4993;DHT22;2514;53.524;10.166;2022-09-24T09:03:42;11.60;99.90
4993;DHT22;2514;53.524;10.166;2022-09-24T09:06:22;11.80;99.90
4993;DHT22;2514;53.524;10.166;2022-09-24T09:09:07;11.80;99.90
4993;DHT22;2514;53.524;10.166;2022-09-24T09:11:42;11.80;99.90
4993;DHT22;2514;53.524;10.166;2022-09-24T09:14:16;11.70;99.90
4993;DHT22;2514;53.524;10.166;2022-09-24T09:16:49;11.70;99.90
4993;DHT22;2514;53.524;10.166;2022-09-24T09:19:24;11.70;99.90
4993;DHT22;2514;53.524;10.166;2022-09-24T09:21:56;11.80;99.90
4993;DHT22;2514;53.524;10.166;2022-09-24T09:24:32;11.80;99.90
4993;DHT22;2514;53.524;10.166;2022-09-24T09:27:10;11.80;99.90
4993;DHT22;2514;53.524;10.166;2022-09-24T09:29:40;11.80;99.90
4993;DHT22;2514;53.524;10.166;2022-09-24T09:32:19;11.80;99.90
4993;DHT22;2514;53.524;10.166;2022-09-24T09:34:58;12.00;99.90
4993;DHT22;2514;53.524;10.166;2022-09-24T09:37:36;12.10;99.90
4993;DHT22;2514;53.524;10.166;2022-09-24T09:40:20;12.00;99.90
4993;DHT22;2514;53.524;10.166;2022-09-24T09:42:58;11.90;99.90
4993;DHT22;2514;53.524;10.166;2022-09-24T09:45:31;12.00;99.90
4993;DHT22;2514;53.524;10.166;2022-09-24T09:48:02;12.00;99.90
4993;DHT22;2514;53.524;10.166;2022-09-24T09:50:35;12.10;99.90
4993;DHT22;2514;53.524;10.166;2022-09-24T09:53:04;12.10;99.90
4993;DHT22;2514;53.524;10.166;2022-09-24T09:55:34;12.10;99.90
4993;DHT22;2514;53.524;10.166;2022-09-24T09:58:14;12.10;99.90
4993;DHT22;2514;53.524;10.166;2022-09-24T10:00:44;12.10;99.90
4993;DHT22;2514;53.524;10.166;2022-09-24T10:03:23;12.20;99.90
4993;DHT22;2514;53.524;10.166;2022-09-24T10:05:57;12.10;99.90
4993;DHT22;2514;53.524;10.166;2022-09-24T10:08:25;12.20;99.90
4993;DHT22;2514;53.524;10.166;2022-09-24T10:10:53;12.30;99.90
4993;DHT22;2514;53.524;10.166;2022-09-24T10:13:21;12.30;99.90
4993;DHT22;2514;53.524;10.166;2022-09-24T10:15:50;12.30;99.90
4993;DHT22;2514;53.524;10.166;2022-09-24T10:18:22;12.30;99.90
4993;DHT22;2514;53.524;10.166;2022-09-24T10:20:56;12.40;99.90
4993;DHT22;2514;53.524;10.166;2022-09-24T10:23:28;12.50;99.90
4993;DHT22;2514;53.524;10.166;2022-09-24T10:26:00;12.30;99.90
4993;DHT22;2514;53.524;10.166;2022-09-24T10:28:29;12.40;99.90
4993;DHT22;2514;53.524;10.166;2022-09-24T10:31:17;12.40;99.90
4993;DHT22;2514;53.524;10.166;2022-09-24T10:33:47;12.40;99.90
4993;DHT22;2514;53.524;10.166;2022-09-24T10:36:19;12.50;99.90
4993;DHT22;2514;53.524;10.166;2022-09-24T10:38:48;12.50;99.90
4993;DHT22;2514;53.524;10.166;2022-09-24T10:41:23;12.50;99.90
4993;DHT22;2514;53.524;10.166;2022-09-24T10:43:53;12.60;99.90
4993;DHT22;2514;53.524;10.166;2022-09-24T10:46:56;12.50;99.90
4993;DHT22;2514;53.524;10.166;2022-09-24T10:49:49;12.40;99.90
4993;DHT22;2514;53.524;10.166;2022-09-24T10:52:45;12.50;99.90
4993;DHT22;2514;53.524;10.166;2022-09-24T10:55:35;12.50;99.90
4993;DHT22;2514;53.524;10.166;2022-09-24T10:58:26;12.40;99.90
4993;DHT22;2514;53.524;10.166;2022-09-24T11:01:13;12.40;99.90
4993;DHT22;2514;53.524;10.166;2022-09-24T11:03:55;12.30;99.90
4993;DHT22;2514;53.524;10.166;2022-09-24T11:06:49;12.30;99.90
4993;DHT22;2514;53.524;10.166;2022-09-24T11:09:35;12.30;99.90
4993;DHT22;2514;53.524;10.166;2022-09-24T11:12:11;12.30;99.90
4993;DHT22;2514;53.524;10.166;2022-09-24T11:14:57;12.30;99.90
4993;DHT22;2514;53.524;10.166;2022-09-24T11:17:31;12.40;99.90
4993;DHT22;2514;53.524;10.166;2022-09-24T11:20:28;12.40;99.90
4993;DHT22;2514;53.524;10.166;2022-09-24T11:23:20;12.40;99.90
4993;DHT22;2514;53.524;10.166;2022-09-24T11:26:01;12.40;99.90
4993;DHT22;2514;53.524;10.166;2022-09-24T11:28:57;12.50;99.90
4993;DHT22;2514;53.524;10.166;2022-09-24T11:31:40;12.40;99.90
4993;DHT22;2514;53.524;10.166;2022-09-24T11:34:23;12.40;99.90
4993;DHT22;2514;53.524;10.166;2022-09-24T11:37:04;12.30;99.90
4993;DHT22;2514;53.524;10.166;2022-09-24T11:39:53;12.30;99.90
4993;DHT22;2514;53.524;10.166;2022-09-24T11:42:33;12.40;99.90
4993;DHT22;2514;53.524;10.166;2022-09-24T11:45:30;12.50;99.90
4993;DHT22;2514;53.524;10.166;2022-09-24T11:48:19;12.50;99.90
4993;DHT22;2514;53.524;10.166;2022-09-24T11:51:01;12.50;99.90
4993;DHT22;2514;53.524;10.166;2022-09-24T11:53:40;12.60;99.90
4993;DHT22;2514;53.524;10.166;2022-09-24T11:56:13;12.50;99.90
4993;DHT22;2514;53.524;10.166;2022-09-24T11:58:47;12.70;99.90
4993;DHT22;2514;53.524;10.166;2022-09-24T12:01:19;12.90;99.90
4993;DHT22;2514;53.524;10.166;2022-09-24T12:03:54;13.00;99.90
4993;DHT22;2514;53.524;10.166;2022-09-24T12:06:26;13.00;99.90
4993;DHT22;2514;53.524;10.166;2022-09-24T12:08:59;13.00;99.90
4993;DHT22;2514;53.524;10.166;2022-09-24T12:11:34;13.00;99.90
4993;DHT22;2514;53.524;10.166;2022-09-24T12:14:13;13.10;99.90
4993;DHT22;2514;53.524;10.166;2022-09-24T12:16:46;12.90;99.90
4993;DHT22;2514;53.524;10.166;2022-09-24T12:19:19;13.00;99.90
4993;DHT22;2514;53.524;10.166;2022-09-24T12:21:50;13.00;99.90
4993;DHT22;2514;53.524;10.166;2022-09-24T12:24:24;13.00;99.90
4993;DHT22;2514;53.524;10.166;2022-09-24T12:26:56;13.00;99.90
4993;DHT22;2514;53.524;10.166;2022-09-24T12:29:37;13.00;99.90
4993;DHT22;2514;53.524;10.166;2022-09-24T12:32:32;13.00;99.90
4993;DHT22;2514;53.524;10.166;2022-09-24T12:35:30;13.00;99.90
4993;DHT22;2514;53.524;10.166;2022-09-24T12:38:04;13.00;99.90
4993;DHT22;2514;53.524;10.166;2022-09-24T12:41:03;13.10;99.90
4993;DHT22;2514;53.524;10.166;2022-09-24T12:43:40;13.10;99.90
4993;DHT22;2514;53.524;10.166;2022-09-24T12:46:16;13.00;99.90
4993;DHT22;2514;53.524;10.166;2022-09-24T12:48:46;13.10;99.90
4993;DHT22;2514;53.524;10.166;2022-09-24T12:51:14;13.10;99.90
4993;DHT22;2514;53.524;10.166;2022-09-24T12:53:55;13.10;99.90
4993;DHT22;2514;53.524;10.166;2022-09-24T12:56:25;13.00;99.90
4993;DHT22;2514;53.524;10.166;2022-09-24T12:58:54;13.10;99.90
4993;DHT22;2514;53.524;10.166;2022-09-24T13:01:28;13.00;99.90
4993;DHT22;2514;53.524;10.166;2022-09-24T13:06:53;13.10;99.90
4993;DHT22;2514;53.524;10.166;2022-09-24T13:09:31;13.30;99.90
4993;DHT22;2514;53.524;10.166;2022-09-24T13:12:17;13.40;99.90
4993;DHT22;2514;53.524;10.166;2022-09-24T13:14:53;13.30;99.90
4993;DHT22;2514;53.524;10.166;2022-09-24T13:17:23;13.30;99.90
4993;DHT22;2514;53.524;10.166;2022-09-24T13:19:56;13.20;99.90
4993;DHT22;2514;53.524;10.166;2022-09-24T13:22:27;13.20;99.90
4993;DHT22;2514;53.524;10.166;2022-09-24T13:25:18;13.30;99.90
4993;DHT22;2514;53.524;10.166;2022-09-24T13:27:59;13.30;99.90
4993;DHT22;2514;53.524;10.166;2022-09-24T13:30:33;13.30;99.90
4993;DHT22;2514;53.524;10.166;2022-09-24T13:33:16;13.40;99.90
4993;DHT22;2514;53.524;10.166;2022-09-24T13:35:58;13.40;99.90
4993;DHT22;2514;53.524;10.166;2022-09-24T13:38:30;13.40;99.90
4993;DHT22;2514;53.524;10.166;2022-09-24T13:41:11;13.40;99.90
4993;DHT22;2514;53.524;10.166;2022-09-24T13:43:46;13.40;99.90
4993;DHT22;2514;53.524;10.166;2022-09-24T13:46:16;13.40;99.90
4993;DHT22;2514;53.524;10.166;2022-09-24T13:48:48;13.50;99.90
4993;DHT22;2514;53.524;10.166;2022-09-24T13:51:20;13.60;99.90
4993;DHT22;2514;53.524;10.166;2022-09-24T13:53:51;13.60;99.90
4993;DHT22;2514;53.524;10.166;2022-09-24T13:56:22;13.70;99.90
4993;DHT22;2514;53.524;10.166;2022-09-24T13:58:49;13.70;99.90
4993;DHT22;2514;53.524;10.166;2022-09-24T14:01:18;13.80;99.90
4993;DHT22;2514;53.524;10.166;2022-09-24T14:03:55;13.80;99.90
4993;DHT22;2514;53.524;10.166;2022-09-24T14:06:32;13.90;99.90
4993;DHT22;2514;53.524;10.166;2022-09-24T14:09:02;13.90;99.90
4993;DHT22;2514;53.524;10.166;2022-09-24T14:11:48;13.90;99.90
4993;DHT22;2514;53.524;10.166;2022-09-24T14:14:17;13.90;99.90
4993;DHT22;2514;53.524;10.166;2022-09-24T14:16:46;14.00;99.90
4993;DHT22;2514;53.524;10.166;2022-09-24T14:19:15;14.10;99.90
4993;DHT22;2514;53.524;10.166;2022-09-24T14:21:46;14.10;99.90
4993;DHT22;2514;53.524;10.166;2022-09-24T14:24:18;14.00;99.90
4993;DHT22;2514;53.524;10.166;2022-09-24T14:26:50;14.00;99.90
4993;DHT22;2514;53.524;10.166;2022-09-24T14:29:24;14.00;99.90
4993;DHT22;2514;53.524;10.166;2022-09-24T14:31:56;14.00;99.90
4993;DHT22;2514;53.524;10.166;2022-09-24T14:34:27;13.90;99.90
4993;DHT22;2514;53.524;10.166;2022-09-24T14:36:59;13.80;99.90
4993;DHT22;2514;53.524;10.166;2022-09-24T14:39:37;13.90;99.90
4993;DHT22;2514;53.524;10.166;2022-09-24T14:42:08;13.90;99.90
4993;DHT22;2514;53.524;10.166;2022-09-24T14:44:39;13.80;99.90
4993;DHT22;2514;53.524;10.166;2022-09-24T14:47:23;13.70;99.90
4993;DHT22;2514;53.524;10.166;2022-09-24T14:49:53;13.60;99.90
4993;DHT22;2514;53.524;10.166;2022-09-24T14:52:27;13.50;99.90
4993;DHT22;2514;53.524;10.166;2022-09-24T14:55:13;13.60;99.90
4993;DHT22;2514;53.524;10.166;2022-09-24T14:57:42;13.50;99.90
4993;DHT22;2514;53.524;10.166;2022-09-24T15:00:20;13.50;99.90
4993;DHT22;2514;53.524;10.166;2022-09-24T15:02:54;13.50;99.90
4993;DHT22;2514;53.524;10.166;2022-09-24T15:05:26;13.50;99.90
4993;DHT22;2514;53.524;10.166;2022-09-24T15:08:15;13.50;99.90
4993;DHT22;2514;53.524;10.166;2022-09-24T15:10:52;13.40;99.90
4993;DHT22;2514;53.524;10.166;2022-09-24T15:13:22;13.40;99.90
4993;DHT22;2514;53.524;10.166;2022-09-24T15:16:04;13.40;99.90
4993;DHT22;2514;53.524;10.166;2022-09-24T15:18:32;13.40;99.90
4993;DHT22;2514;53.524;10.166;2022-09-24T15:21:02;13.40;99.90
4993;DHT22;2514;53.524;10.166;2022-09-24T15:23:32;13.40;99.90
4993;DHT22;2514;53.524;10.166;2022-09-24T15:25:59;13.40;99.90
4993;DHT22;2514;53.524;10.166;2022-09-24T15:28:26;13.30;99.90
4993;DHT22;2514;53.524;10.166;2022-09-24T15:30:54;13.30;99.90
4993;DHT22;2514;53.524;10.166;2022-09-24T15:33:21;13.30;99.90
4993;DHT22;2514;53.524;10.166;2022-09-24T15:35:49;13.40;99.90
4993;DHT22;2514;53.524;10.166;2022-09-24T15:38:18;13.50;99.90
4993;DHT22;2514;53.524;10.166;2022-09-24T15:40:46;13.50;99.90
4993;DHT22;2514;53.524;10.166;2022-09-24T15:43:20;13.60;99.90
4993;DHT22;2514;53.524;10.166;2022-09-24T15:45:48;13.70;99.90
4993;DHT22;2514;53.524;10.166;2022-09-24T15:48:15;13.70;99.90
4993;DHT22;2514;53.524;10.166;2022-09-24T15:50:44;13.70;99.90
4993;DHT22;2514;53.524;10.166;2022-09-24T15:53:19;13.70;99.90
4993;DHT22;2514;53.524;10.166;2022-09-24T15:55:51;13.60;99.90
4993;DHT22;2514;53.524;10.166;2022-09-24T15:58:19;13.60;99.90
4993;DHT22;2514;53.524;10.166;2022-09-24T16:00:46;13.60;99.90
4993;DHT22;2514;53.524;10.166;2022-09-24T16:03:17;13.60;99.90
4993;DHT22;2514;53.524;10.166;2022-09-24T16:05:46;13.60;99.90
4993;DHT22;2514;53.524;10.166;2022-09-24T16:08:13;13.60;99.90
4993;DHT22;2514;53.524;10.166;2022-09-24T16:10:42;13.60;99.90
4993;DHT22;2514;53.524;10.166;2022-09-24T16:13:10;13.60;99.90
4993;DHT22;2514;53.524;10.166;2022-09-24T16:15:38;13.60;99.90
4993;DHT22;2514;53.524;10.166;2022-09-24T16:18:05;13.60;99.90
4993;DHT22;2514;53.524;10.166;2022-09-24T16:20:36;13.60;99.90
4993;DHT22;2514;53.524;10.166;2022-09-24T16:23:04;13.60;99.90